Allison, TX

4:10 PM CDT on July 24, 2014 (GMT -0500)
Hemphill County (KHHF) Elev 2395 ft | 35.89 °N, 100.40 °W | Change Station

Current weather conditions updated 15 minutes ago

Partly Cloudy
Partly Cloudy
100 °F
Feels Like 100 °F
N
12
Wind Variable Wind from SSW
Gusts 21 mph

Tomorrow is forecast to be nearly the same temperature as today.

Today
High -- | Low -- °F
--% Chance of Precip.
Yesterday
High -- | Low -- °F
Precip. -- in
6:42 AM 8:50 PM
Waning Crescent, 4% visible
Pressure 30.01 in
Visibility 10.0 miles
Clouds Scattered Clouds 8500 ft
Heat Index 100 °F
Dew Point 61 °F
Humidity 28%
Rainfall 0.00 in
Snow Depth Not available.
UV 8 out of 12
Pollen 5.10 out of 12
Air Quality Not available.
Flu Activity Not available.
METAR KHHF 242055Z AUTO 21010G18KT 10SM SCT085 38/16 A3001 RMK AO2 T03750161

More Conditions Fewer Conditions

Pressure 30.01 in
Visibility 10.0 miles
Clouds Scattered Clouds 8500 ft
Heat Index 100 °F
Dew Point 61 °F
Humidity 28%
Rainfall 0.00 in
Snow Depth Not available.
UV 8 out of 12
Pollen 5.10 out of 12
Air Quality Not available.
Flu Activity Not available.
METAR KHHF 242055Z AUTO 21010G18KT 10SM SCT085 38/16 A3001 RMK AO2 T03750161

More Conditions Fewer Conditions

10-Day Weather Forecast

Almanac

Astronomy

Jul. 24, 2014 Rise Set
Actual Time 6:42 AM CDT 8:50 PM CDT
Civil Twilight 6:14 AM CDT 9:19 PM CDT
Nautical Twilight 5:39 AM CDT 9:54 PM CDT
Astronomical Twilight 5:01 AM CDT 10:31 PM CDT
Moon 4:51 AM CDT 7:08 PM CDT
Length of Visible Light 15h 05m
Length of Day
14h 08m
Tomorrow will be 1m 28s shorter.
Waning Crescent, 4% of the Moon is Illuminated
Today
Waning Crescent
Jul 26
New
Aug 3
First Quarter
Aug 10
Full
Aug 17
Last Quarter

Today's Extremes

State Highs State Lows

Community

WunderPhotos

Upload Photos

1,737,129 photos uploaded!

WunderBlogs® & News

Nearby

Snow Depth

Station Depth Elevation
No new snow has been reported.

Earthquake Activity

City Distance Mag. Time & Date
No recent earthquake activity has been reported nearby.
Minimum magnitude displayed is 2.5.

Coastal Water Temperatures

Place Temperature
No Stations Reporting

Nearby Weather Stations

Station Location Temp. Heat Index Dew Point Humidity Wind Precip. Elev Updated Type
RAWS WHEELER RAWS TX, Wheeler, TX 96 °F 98 °F 64 °F 35% South  at  8 mph 0.00 in / hr 2375 ft 2:38 PM CDT MADIS
RAWS CHEYENNE OK, Reydon, OK 100 °F 102 °F 63 °F 30% South  at  8 mph 0.00 in / hr 2352 ft 2:58 PM CDT MADIS

Show More Stations Show Fewer Stations